createdAt,value
2022-11-17T00:00:42.494Z,9.61
2022-11-17T00:03:16.906Z,9.58
2022-11-17T00:05:45.130Z,9.66
2022-11-17T00:08:13.443Z,9.84
2022-11-17T00:10:41.535Z,9.60
2022-11-17T00:13:29.472Z,9.76
2022-11-17T00:15:57.776Z,9.86
2022-11-17T00:18:44.466Z,9.80
2022-11-17T00:21:23.971Z,10.12
2022-11-17T00:23:51.978Z,9.77
2022-11-17T00:26:27.826Z,9.56
2022-11-17T00:29:00.665Z,9.41
2022-11-17T00:31:49.044Z,9.55
2022-11-17T00:34:22.263Z,9.60
2022-11-17T00:36:55.626Z,9.27
2022-11-17T00:39:24.376Z,9.80
2022-11-17T00:41:52.645Z,9.57
2022-11-17T00:44:20.664Z,9.54
2022-11-17T00:46:49.089Z,9.84
2022-11-17T00:49:18.208Z,9.68
2022-11-17T00:51:46.185Z,9.67
2022-11-17T00:54:15.147Z,9.57
2022-11-17T00:56:43.572Z,9.23
2022-11-17T00:59:11.937Z,9.74
2022-11-17T01:01:40.313Z,9.81
2022-11-17T01:04:08.776Z,9.22
2022-11-17T01:06:42.707Z,9.21
2022-11-17T01:09:16.433Z,9.14
2022-11-17T01:11:44.884Z,9.16
2022-11-17T01:14:16.028Z,9.38
2022-11-17T01:16:44.784Z,9.33
2022-11-17T01:19:14.176Z,9.37
2022-11-17T01:21:42.947Z,9.22
2022-11-17T01:24:12.336Z,9.65
2022-11-17T01:26:40.725Z,9.65
2022-11-17T01:29:10.657Z,9.04
2022-11-17T01:31:40.394Z,9.37
2022-11-17T01:34:08.717Z,9.08
2022-11-17T01:37:00.390Z,9.41
2022-11-17T01:39:30.122Z,9.28
2022-11-17T01:41:58.806Z,9.11
2022-11-17T01:44:41.990Z,9.16
2022-11-17T01:47:52.235Z,9.36
2022-11-17T01:50:40.517Z,8.81
2022-11-17T01:53:15.655Z,9.25
2022-11-17T01:55:56.517Z,9.18
2022-11-17T01:58:29.266Z,9.25
2022-11-17T02:00:57.441Z,9.10
2022-11-17T02:03:26.654Z,9.07
2022-11-17T02:06:15.176Z,8.99
2022-11-17T02:08:46.454Z,8.96
2022-11-17T02:11:17.914Z,8.16
2022-11-17T02:13:46.585Z,9.05
2022-11-17T02:16:15.879Z,9.06
2022-11-17T02:18:45.024Z,9.00
2022-11-17T02:21:47.356Z,9.30
2022-11-17T02:24:24.075Z,9.09
2022-11-17T02:27:13.757Z,9.17
2022-11-17T02:30:00.844Z,9.01
2022-11-17T02:32:53.723Z,9.08
2022-11-17T02:35:36.576Z,9.16
2022-11-17T02:38:16.978Z,9.45
2022-11-17T02:41:34.354Z,9.51
2022-11-17T02:44:17.643Z,9.08
2022-11-17T02:47:05.133Z,9.37
2022-11-17T02:49:38.413Z,9.63
2022-11-17T02:52:07.034Z,9.52
2022-11-17T02:54:35.354Z,9.55
2022-11-17T02:57:03.233Z,9.41
2022-11-17T02:59:37.815Z,9.60
2022-11-17T03:02:24.604Z,9.17
2022-11-17T03:05:06.563Z,9.18
2022-11-17T03:07:53.564Z,9.48
2022-11-17T03:10:24.063Z,9.50
2022-11-17T03:13:10.723Z,9.23
2022-11-17T03:15:47.574Z,9.31
2022-11-17T03:18:18.844Z,9.48
2022-11-17T03:21:21.752Z,9.65
2022-11-17T03:24:11.846Z,8.95
2022-11-17T03:26:48.273Z,9.28
2022-11-17T03:29:19.013Z,9.42
2022-11-17T03:31:48.803Z,9.17
2022-11-17T03:34:21.347Z,9.03
2022-11-17T03:36:53.023Z,8.98
2022-11-17T03:39:44.289Z,9.05
2022-11-17T03:42:26.671Z,8.83
2022-11-17T03:45:02.449Z,8.60
2022-11-17T03:47:32.433Z,8.67
2022-11-17T03:50:15.621Z,8.72
2022-11-17T03:52:44.991Z,8.47
2022-11-17T03:55:13.784Z,8.49
2022-11-17T03:57:54.213Z,8.60
2022-11-17T04:00:22.523Z,8.44
2022-11-17T04:02:55.455Z,8.81
2022-11-17T04:05:23.341Z,8.54
2022-11-17T04:07:51.661Z,8.82
2022-11-17T04:10:26.039Z,8.49
2022-11-17T04:13:13.003Z,8.77
2022-11-17T04:15:59.537Z,8.59
2022-11-17T04:18:27.911Z,8.57
2022-11-17T04:20:57.322Z,8.66
2022-11-17T04:23:26.069Z,8.59
2022-11-17T04:26:14.873Z,8.20
2022-11-17T04:28:49.122Z,8.35
2022-11-17T04:31:28.822Z,8.48
2022-11-17T04:34:05.004Z,8.44
2022-11-17T04:36:35.332Z,8.71
2022-11-17T04:39:04.076Z,8.52
2022-11-17T04:41:50.622Z,8.58
2022-11-17T04:44:19.092Z,8.70
2022-11-17T04:46:47.073Z,8.38
2022-11-17T04:49:16.142Z,8.24
2022-11-17T04:51:44.982Z,8.45
2022-11-17T04:54:15.523Z,8.98
2022-11-17T04:56:43.692Z,8.68
2022-11-17T04:59:12.123Z,8.72
2022-11-17T05:01:40.085Z,8.95
2022-11-17T05:04:10.314Z,8.77
2022-11-17T05:06:41.693Z,9.03
2022-11-17T05:09:12.332Z,8.86
2022-11-17T05:11:59.544Z,8.48
2022-11-17T05:14:28.407Z,9.00
2022-11-17T05:17:10.579Z,8.68
2022-11-17T05:19:41.711Z,9.12
2022-11-17T05:22:29.367Z,9.18
2022-11-17T05:24:57.594Z,9.07
2022-11-17T05:27:26.185Z,8.99
2022-11-17T05:29:54.382Z,8.86
2022-11-17T05:32:22.312Z,9.01
2022-11-17T05:34:50.594Z,9.05
2022-11-17T05:37:18.531Z,9.06
2022-11-17T05:39:46.486Z,9.17
2022-11-17T05:42:14.864Z,8.88
2022-11-17T05:44:42.804Z,9.11
2022-11-17T05:47:10.694Z,8.85
2022-11-17T05:49:39.034Z,9.14
2022-11-17T05:52:06.934Z,9.39
2022-11-17T05:54:34.978Z,9.00
2022-11-17T05:57:12.855Z,9.21
2022-11-17T05:59:50.745Z,9.50
2022-11-17T06:02:28.445Z,9.33
2022-11-17T06:04:56.882Z,8.77
2022-11-17T06:07:25.157Z,9.02
2022-11-17T06:09:53.722Z,8.85
2022-11-17T06:12:22.189Z,9.03
2022-11-17T06:14:50.234Z,8.76
2022-11-17T06:17:25.983Z,8.58
2022-11-17T06:20:10.702Z,8.28
2022-11-17T06:22:39.596Z,8.44
2022-11-17T06:25:10.904Z,8.63
2022-11-17T06:27:39.645Z,8.54
2022-11-17T06:30:08.357Z,8.20
2022-11-17T06:32:38.393Z,8.64
2022-11-17T06:35:08.226Z,8.14
2022-11-17T06:37:36.610Z,8.35
2022-11-17T06:40:05.195Z,8.34
2022-11-17T06:42:51.897Z,8.42
2022-11-17T06:45:20.089Z,8.23
2022-11-17T06:47:48.084Z,8.22
2022-11-17T06:50:18.084Z,8.12
2022-11-17T06:52:49.104Z,8.09
2022-11-17T06:55:17.360Z,8.23
2022-11-17T06:57:50.325Z,8.13
2022-11-17T07:00:21.698Z,8.58
2022-11-17T07:02:49.808Z,8.01
2022-11-17T07:05:18.226Z,8.52
2022-11-17T07:07:46.775Z,8.70
2022-11-17T07:10:14.826Z,8.77
2022-11-17T07:12:43.125Z,8.65
2022-11-17T07:15:11.832Z,8.27
2022-11-17T07:17:39.798Z,8.29
2022-11-17T07:20:08.316Z,8.84
2022-11-17T07:22:37.453Z,9.10
2022-11-17T07:25:06.076Z,8.86
2022-11-17T07:27:34.247Z,8.80
2022-11-17T07:30:06.827Z,8.78
2022-11-17T07:32:35.255Z,9.13
2022-11-17T07:35:06.126Z,9.19
2022-11-17T07:37:34.626Z,9.06
2022-11-17T07:40:02.677Z,9.36
2022-11-17T07:42:31.505Z,8.75
2022-11-17T07:44:59.686Z,8.74
2022-11-17T07:47:27.753Z,9.21
2022-11-17T07:49:56.290Z,9.39
2022-11-17T07:52:24.332Z,9.60
2022-11-17T07:54:52.319Z,9.60
2022-11-17T07:57:21.731Z,9.49
2022-11-17T07:59:49.816Z,8.96
2022-11-17T08:02:17.854Z,9.79
2022-11-17T08:04:46.272Z,9.71
2022-11-17T08:07:14.454Z,9.74
2022-11-17T08:09:42.717Z,9.21
2022-11-17T08:12:11.175Z,9.66
2022-11-17T08:14:39.195Z,9.40
2022-11-17T08:17:07.404Z,9.29
2022-11-17T08:19:35.898Z,9.74
2022-11-17T08:22:04.034Z,9.27
2022-11-17T08:24:32.044Z,9.53
2022-11-17T08:27:00.457Z,9.46
2022-11-17T08:29:28.516Z,9.66
2022-11-17T08:31:56.604Z,9.79
2022-11-17T08:34:25.182Z,9.97
2022-11-17T08:36:53.365Z,9.93
2022-11-17T08:39:21.618Z,10.16
2022-11-17T08:41:51.946Z,10.16
2022-11-17T08:44:20.045Z,9.83
2022-11-17T08:46:49.299Z,9.99
2022-11-17T08:49:18.049Z,9.97
2022-11-17T08:51:46.134Z,10.35
2022-11-17T08:54:14.415Z,10.22
2022-11-17T08:56:42.864Z,10.11
2022-11-17T08:59:13.320Z,10.31
2022-11-17T09:01:41.691Z,9.36
2022-11-17T09:04:10.236Z,9.74
2022-11-17T09:06:38.315Z,9.95
2022-11-17T09:09:06.702Z,10.11
2022-11-17T09:11:35.445Z,10.24
2022-11-17T09:14:03.975Z,9.93
2022-11-17T09:16:32.174Z,10.65
2022-11-17T09:19:00.662Z,10.75
2022-11-17T09:21:31.885Z,10.23
2022-11-17T09:24:00.285Z,10.61
2022-11-17T09:26:28.463Z,10.66
2022-11-17T09:28:56.494Z,10.54
2022-11-17T09:31:25.142Z,10.49
2022-11-17T09:33:53.295Z,10.75
2022-11-17T09:36:21.523Z,10.95
2022-11-17T09:38:51.025Z,10.38
2022-11-17T09:41:26.570Z,11.06
2022-11-17T09:43:59.794Z,11.20
2022-11-17T09:46:51.398Z,11.24
2022-11-17T09:49:29.125Z,11.63
2022-11-17T09:51:59.015Z,11.55
2022-11-17T09:54:43.244Z,11.98
2022-11-17T09:57:28.326Z,12.40
2022-11-17T10:00:04.445Z,12.05
2022-11-17T10:02:33.376Z,12.41
2022-11-17T10:05:02.171Z,13.66
2022-11-17T10:07:32.231Z,13.08
2022-11-17T10:10:01.695Z,13.67
2022-11-17T10:12:39.219Z,13.15
2022-11-17T10:15:31.538Z,13.43
2022-11-17T10:18:00.025Z,13.46
2022-11-17T10:20:28.107Z,14.25
2022-11-17T10:22:56.919Z,14.08
2022-11-17T10:25:43.566Z,14.46
2022-11-17T10:28:32.672Z,15.79
2022-11-17T10:31:01.145Z,16.73
2022-11-17T10:33:38.819Z,17.48
2022-11-17T10:36:15.764Z,17.10
2022-11-17T10:38:44.414Z,16.85
2022-11-17T10:41:23.584Z,17.00
2022-11-17T10:44:02.253Z,16.55
2022-11-17T10:46:41.593Z,17.76
2022-11-17T10:49:27.630Z,18.48
2022-11-17T10:52:06.345Z,18.51
2022-11-17T10:54:34.521Z,17.08
2022-11-17T10:57:07.474Z,17.11
2022-11-17T10:59:57.042Z,16.78
2022-11-17T11:02:38.062Z,16.65
2022-11-17T11:05:19.286Z,16.27
2022-11-17T11:07:47.815Z,16.45
2022-11-17T11:10:16.046Z,16.24
2022-11-17T11:13:15.197Z,16.52
2022-11-17T11:15:45.226Z,15.78
2022-11-17T11:18:14.995Z,15.80
2022-11-17T11:21:05.478Z,16.08
2022-11-17T11:24:18.034Z,16.24
2022-11-17T11:26:57.653Z,15.85
2022-11-17T11:30:05.669Z,15.65
2022-11-17T11:33:09.704Z,14.50
2022-11-17T11:36:05.335Z,14.26
2022-11-17T11:39:35.617Z,13.66
2022-11-17T11:42:30.332Z,13.67
2022-11-17T11:45:08.096Z,13.91
2022-11-17T11:47:54.713Z,13.65
2022-11-17T11:50:23.278Z,13.29
2022-11-17T11:53:03.317Z,13.54
2022-11-17T11:55:35.455Z,13.26
2022-11-17T11:58:20.866Z,13.36
2022-11-17T12:00:51.946Z,13.31
2022-11-17T12:03:33.977Z,13.98
2022-11-17T12:06:37.965Z,14.76
2022-11-17T12:09:28.422Z,14.96
2022-11-17T12:12:00.475Z,15.36
2022-11-17T12:14:37.144Z,14.72
2022-11-17T12:17:17.425Z,14.96
2022-11-17T12:19:50.622Z,14.75
2022-11-17T12:22:38.290Z,14.59
2022-11-17T12:25:18.565Z,13.95
2022-11-17T12:27:50.185Z,14.03
2022-11-17T12:30:30.877Z,13.59
2022-11-17T12:33:05.019Z,13.17
2022-11-17T12:35:38.155Z,13.29
2022-11-17T12:38:18.095Z,13.70
2022-11-17T12:40:47.436Z,14.39
2022-11-17T12:43:15.537Z,13.79
2022-11-17T12:45:53.878Z,14.34
2022-11-17T12:48:34.103Z,14.49
2022-11-17T12:51:09.054Z,13.92
2022-11-17T12:54:02.037Z,13.95
2022-11-17T12:56:45.294Z,13.88
2022-11-17T12:59:24.475Z,13.31
2022-11-17T13:02:12.355Z,13.33
2022-11-17T13:04:50.268Z,13.33
2022-11-17T13:07:21.627Z,13.51
2022-11-17T13:09:57.240Z,13.39
2022-11-17T13:12:28.270Z,13.58
2022-11-17T13:14:58.637Z,13.43
2022-11-17T13:17:29.845Z,13.00
2022-11-17T13:20:05.164Z,13.05
2022-11-17T13:22:36.470Z,13.60
2022-11-17T13:25:24.466Z,13.68
2022-11-17T13:27:57.155Z,12.98
2022-11-17T13:30:30.717Z,13.20
2022-11-17T13:33:01.798Z,12.88
2022-11-17T13:35:32.886Z,13.26
2022-11-17T13:38:22.045Z,12.75
2022-11-17T13:40:51.807Z,12.98
2022-11-17T13:43:21.279Z,12.99
2022-11-17T13:45:53.563Z,12.95
2022-11-17T13:48:38.825Z,12.55
2022-11-17T13:51:28.377Z,12.56
2022-11-17T13:53:58.562Z,12.12
2022-11-17T13:56:38.248Z,12.49
2022-11-17T13:59:23.908Z,12.83
2022-11-17T14:02:16.684Z,12.27
2022-11-17T14:05:07.403Z,12.65
2022-11-17T14:07:39.667Z,12.86
2022-11-17T14:10:29.773Z,13.19
2022-11-17T14:13:00.905Z,13.34
2022-11-17T14:15:31.714Z,12.77
2022-11-17T14:18:01.364Z,12.40
2022-11-17T14:20:33.542Z,12.44
2022-11-17T14:23:10.694Z,12.54
2022-11-17T14:25:41.068Z,12.69
2022-11-17T14:28:17.225Z,12.87
2022-11-17T14:30:50.909Z,13.15
2022-11-17T14:33:18.975Z,12.92
2022-11-17T14:35:56.498Z,12.72
2022-11-17T14:38:24.931Z,12.69
2022-11-17T14:40:53.960Z,12.56
2022-11-17T14:43:22.858Z,11.76
2022-11-17T14:45:51.222Z,11.81
2022-11-17T14:48:20.541Z,12.44
2022-11-17T14:50:48.875Z,12.28
2022-11-17T14:53:17.021Z,12.02
2022-11-17T14:55:45.439Z,12.34
2022-11-17T14:58:13.514Z,12.09
2022-11-17T15:00:41.914Z,12.11
2022-11-17T15:03:10.537Z,11.83
2022-11-17T15:05:45.723Z,12.24
2022-11-17T15:08:14.931Z,11.91
2022-11-17T15:10:44.815Z,12.41
2022-11-17T15:13:13.032Z,12.65
2022-11-17T15:15:41.676Z,11.90
2022-11-17T15:18:11.776Z,11.95
2022-11-17T15:20:41.051Z,11.58
2022-11-17T15:23:09.526Z,11.85
2022-11-17T15:25:39.195Z,11.52
2022-11-17T15:28:07.307Z,11.40
2022-11-17T15:30:35.751Z,11.22
2022-11-17T15:33:03.922Z,11.02
2022-11-17T15:35:31.937Z,11.51
2022-11-17T15:38:00.327Z,11.61
2022-11-17T15:40:28.915Z,11.21
2022-11-17T15:42:56.964Z,10.71
2022-11-17T15:45:25.704Z,11.10
2022-11-17T15:47:53.932Z,11.14
2022-11-17T15:50:22.164Z,11.01
2022-11-17T15:53:04.244Z,11.17
2022-11-17T15:55:35.445Z,10.98
2022-11-17T15:58:04.284Z,11.02
2022-11-17T16:00:34.085Z,11.42
2022-11-17T16:03:02.677Z,11.61
2022-11-17T16:05:30.657Z,11.89
2022-11-17T16:07:59.018Z,11.71
2022-11-17T16:10:27.706Z,11.31
2022-11-17T16:12:56.955Z,11.35
2022-11-17T16:15:25.154Z,11.24
2022-11-17T16:17:53.635Z,11.32
2022-11-17T16:20:21.798Z,11.12
2022-11-17T16:22:49.855Z,11.22
2022-11-17T16:25:18.333Z,11.17
2022-11-17T16:27:46.687Z,11.22
2022-11-17T16:30:15.274Z,11.35
2022-11-17T16:32:43.744Z,10.95
2022-11-17T16:35:11.840Z,11.16
2022-11-17T16:37:39.975Z,10.91
2022-11-17T16:40:08.615Z,11.38
2022-11-17T16:42:37.358Z,11.48
2022-11-17T16:45:05.933Z,11.27
2022-11-17T16:47:34.366Z,11.46
2022-11-17T16:50:03.735Z,10.77
2022-11-17T16:52:34.484Z,11.55
2022-11-17T16:55:05.031Z,10.75
2022-11-17T16:57:33.618Z,11.53
2022-11-17T17:00:01.779Z,11.47
2022-11-17T17:02:30.286Z,11.39
2022-11-17T17:04:58.459Z,11.50
2022-11-17T17:07:26.696Z,11.55
2022-11-17T17:09:55.309Z,11.39
2022-11-17T17:12:23.445Z,11.62
2022-11-17T17:14:51.557Z,11.00
2022-11-17T17:17:20.205Z,11.08
2022-11-17T17:19:48.732Z,10.93
2022-11-17T17:22:16.676Z,11.14
2022-11-17T17:24:45.114Z,10.98
2022-11-17T17:27:13.191Z,10.98
2022-11-17T17:29:41.258Z,11.19
2022-11-17T17:32:10.049Z,11.32
2022-11-17T17:34:38.095Z,11.69
2022-11-17T17:37:06.186Z,11.44
2022-11-17T17:39:34.674Z,11.12
2022-11-17T17:42:02.706Z,11.09
2022-11-17T17:44:30.677Z,11.20
2022-11-17T17:46:59.023Z,11.35
2022-11-17T17:49:27.176Z,10.89
2022-11-17T17:51:55.215Z,11.21
2022-11-17T17:54:24.294Z,11.77
2022-11-17T17:56:53.084Z,11.18
2022-11-17T17:59:21.038Z,11.21
2022-11-17T18:01:49.889Z,10.98
2022-11-17T18:04:20.309Z,10.95
2022-11-17T18:06:48.908Z,10.89
2022-11-17T18:09:20.464Z,11.14
2022-11-17T18:11:50.503Z,10.82
2022-11-17T18:14:26.469Z,11.11
2022-11-17T18:16:54.944Z,10.34
2022-11-17T18:19:26.921Z,10.88
2022-11-17T18:21:56.736Z,10.78
2022-11-17T18:24:24.877Z,11.00
2022-11-17T18:26:52.861Z,11.02
2022-11-17T18:29:21.238Z,10.81
2022-11-17T18:31:49.711Z,11.12
2022-11-17T18:34:19.278Z,10.76
2022-11-17T18:36:51.873Z,10.81
2022-11-17T18:39:21.066Z,10.80
2022-11-17T18:41:49.466Z,10.62
2022-11-17T18:44:21.744Z,10.47
2022-11-17T18:46:50.176Z,10.35
2022-11-17T18:49:18.718Z,10.07
2022-11-17T18:51:47.510Z,10.64
2022-11-17T18:54:15.941Z,10.35
2022-11-17T18:56:44.834Z,10.53
2022-11-17T18:59:13.073Z,10.17
2022-11-17T19:01:43.119Z,10.23
2022-11-17T19:04:14.932Z,10.20
2022-11-17T19:06:43.471Z,10.20
2022-11-17T19:09:11.994Z,10.18
2022-11-17T19:11:40.326Z,10.33
2022-11-17T19:14:08.692Z,10.29
2022-11-17T19:16:44.410Z,10.33
2022-11-17T19:19:14.697Z,10.19
2022-11-17T19:21:43.243Z,10.05
2022-11-17T19:24:11.538Z,10.10
2022-11-17T19:26:40.183Z,10.34
2022-11-17T19:29:15.967Z,10.33
2022-11-17T19:31:46.366Z,10.21
2022-11-17T19:34:17.442Z,10.05
2022-11-17T19:36:46.333Z,10.17
2022-11-17T19:39:15.250Z,10.03
2022-11-17T19:41:45.409Z,10.18
2022-11-17T19:44:13.966Z,9.80
2022-11-17T19:46:42.907Z,9.86
2022-11-17T19:49:11.824Z,9.72
2022-11-17T19:51:41.505Z,10.04
2022-11-17T19:54:10.339Z,10.09
2022-11-17T19:56:38.775Z,9.98
2022-11-17T19:59:10.937Z,10.49
2022-11-17T20:01:42.325Z,10.11
2022-11-17T20:04:10.822Z,10.51
2022-11-17T20:06:39.479Z,9.87
2022-11-17T20:09:12.322Z,10.24
2022-11-17T20:11:41.153Z,10.34
2022-11-17T20:14:09.564Z,10.46
2022-11-17T20:16:38.986Z,10.03
2022-11-17T20:19:07.524Z,9.75
2022-11-17T20:21:35.566Z,9.82
2022-11-17T20:24:04.272Z,9.81
2022-11-17T20:26:34.163Z,10.33
2022-11-17T20:29:05.737Z,10.13
2022-11-17T20:31:36.548Z,10.77
2022-11-17T20:34:05.737Z,10.05
2022-11-17T20:36:35.784Z,10.08
2022-11-17T20:39:06.155Z,10.28
2022-11-17T20:41:35.011Z,10.39
2022-11-17T20:44:04.042Z,10.12
2022-11-17T20:46:34.275Z,9.73
2022-11-17T20:49:08.831Z,10.26
2022-11-17T20:51:39.814Z,10.15
2022-11-17T20:54:10.197Z,10.12
2022-11-17T20:56:39.932Z,10.11
2022-11-17T20:59:09.225Z,9.46
2022-11-17T21:01:37.839Z,9.73
2022-11-17T21:04:06.287Z,9.81
2022-11-17T21:06:35.134Z,9.92
2022-11-17T21:09:04.952Z,9.70
2022-11-17T21:11:51.553Z,9.88
2022-11-17T21:14:21.305Z,10.03
2022-11-17T21:16:50.285Z,9.89
2022-11-17T21:19:20.180Z,9.72
2022-11-17T21:21:56.494Z,9.52
2022-11-17T21:24:27.494Z,9.89
2022-11-17T21:26:57.266Z,9.64
2022-11-17T21:29:26.315Z,9.93
2022-11-17T21:31:56.046Z,9.35
2022-11-17T21:34:24.492Z,9.43
2022-11-17T21:36:53.621Z,9.61
2022-11-17T21:39:22.504Z,10.23
2022-11-17T21:41:51.068Z,10.38
2022-11-17T21:44:19.438Z,10.56
2022-11-17T21:46:47.725Z,9.94
2022-11-17T21:49:18.222Z,9.93
2022-11-17T21:51:46.884Z,10.14
2022-11-17T21:54:15.666Z,9.03
2022-11-17T21:56:46.313Z,8.64
2022-11-17T21:59:14.586Z,8.83
2022-11-17T22:01:44.633Z,9.04
2022-11-17T22:04:16.272Z,9.14
2022-11-17T22:06:44.514Z,9.33
2022-11-17T22:09:13.489Z,9.86
2022-11-17T22:11:41.768Z,8.79
2022-11-17T22:14:18.423Z,8.94
2022-11-17T22:16:49.344Z,9.73
2022-11-17T22:19:20.570Z,9.96
2022-11-17T22:21:52.293Z,10.12
2022-11-17T22:24:21.600Z,10.05
2022-11-17T22:26:51.860Z,9.57
2022-11-17T22:29:21.612Z,9.07
2022-11-17T22:31:50.876Z,8.73
2022-11-17T22:34:19.253Z,9.52
2022-11-17T22:36:47.265Z,9.21
2022-11-17T22:39:16.551Z,8.48
2022-11-17T22:41:44.799Z,9.36
2022-11-17T22:44:14.244Z,9.45
2022-11-17T22:46:45.994Z,8.39
2022-11-17T22:49:14.160Z,7.97
2022-11-17T22:52:01.222Z,8.47
2022-11-17T22:54:29.505Z,8.54
2022-11-17T22:56:58.408Z,8.07
2022-11-17T22:59:27.783Z,8.42
2022-11-17T23:01:56.116Z,7.97
2022-11-17T23:04:24.555Z,7.95
2022-11-17T23:06:52.644Z,8.70
2022-11-17T23:09:20.787Z,9.18
2022-11-17T23:11:49.663Z,8.11
2022-11-17T23:14:17.829Z,8.29
2022-11-17T23:16:45.803Z,8.59
2022-11-17T23:19:14.597Z,8.72
2022-11-17T23:21:42.746Z,8.98
2022-11-17T23:24:13.139Z,8.37
2022-11-17T23:26:42.426Z,7.86
2022-11-17T23:29:10.973Z,7.85
2022-11-17T23:31:39.106Z,8.56
2022-11-17T23:34:10.392Z,8.64
2022-11-17T23:36:38.466Z,7.81
2022-11-17T23:39:06.514Z,8.58
2022-11-17T23:41:34.957Z,8.22
2022-11-17T23:44:02.895Z,8.18
2022-11-17T23:46:30.915Z,8.67
2022-11-17T23:48:59.234Z,7.96
2022-11-17T23:51:27.384Z,8.15
2022-11-17T23:53:55.485Z,8.18
2022-11-17T23:56:24.011Z,8.39
2022-11-17T23:58:52.329Z,8.35
